RJA814 OJAI-ORBI
Flight info
| Callsign | RJA814 |
|---|---|
| Flight time | 1h 9m |
| Altitude | 37000 |
| Route | LOSA1Y LOSAR Z611 ASLON A412 DAXEN L200 SILBO DCT BGD DCT |
| Aircraft | A320/M-SDE3FGHIRWY/LB1 |
Departure
| Time | 2026-04-29 02:32 |
|---|---|
| Airport | Queen Alia International Airport (OJAI) |
Arrival
| Time | 2026-04-29 03:42 |
|---|---|
| Airport | Baghdad International Airport / New Al Muthana Air Base (ORBI) |
| Time | Latitude | Longitude | Altitude | Speed | Heading |
|---|---|---|---|---|---|
| 2026-04-29 01:58 | 31.71958 | 35.99066 | 2418 ft | 0 kts | 171° |
| 2026-04-29 02:24 | 31.71975 | 35.99063 | 2418 ft | 2 kts | 171° |
| 2026-04-29 02:25 | 31.72007 | 35.99058 | 2417 ft | 2 kts | 183° |
| 2026-04-29 02:25 | 31.72022 | 35.99066 | 2417 ft | 2 kts | 255° |
| 2026-04-29 02:25 | 31.72023 | 35.99072 | 2417 ft | 0 kts | 260° |
| 2026-04-29 02:28 | 31.72020 | 35.99054 | 2416 ft | 5 kts | 260° |
| 2026-04-29 02:28 | 31.72011 | 35.98991 | 2418 ft | 11 kts | 259° |
| 2026-04-29 02:29 | 31.71964 | 35.98911 | 2418 ft | 15 kts | 188° |
| 2026-04-29 02:29 | 31.71855 | 35.98909 | 2418 ft | 15 kts | 234° |
| 2026-04-29 02:29 | 31.71821 | 35.98777 | 2418 ft | 19 kts | 259° |
| 2026-04-29 02:29 | 31.71798 | 35.98620 | 2417 ft | 20 kts | 261° |
| 2026-04-29 02:30 | 31.71773 | 35.98450 | 2418 ft | 22 kts | 261° |
| 2026-04-29 02:30 | 31.71749 | 35.98270 | 2418 ft | 23 kts | 259° |
| 2026-04-29 02:30 | 31.71721 | 35.98086 | 2418 ft | 16 kts | 259° |
| 2026-04-29 02:30 | 31.71644 | 35.98038 | 2417 ft | 14 kts | 173° |
| 2026-04-29 02:31 | 31.71538 | 35.98058 | 2418 ft | 16 kts | 170° |
| 2026-04-29 02:31 | 31.71455 | 35.98124 | 2416 ft | 16 kts | 99° |
| 2026-04-29 02:31 | 31.71485 | 35.98382 | 2418 ft | 59 kts | 80° |
| 2026-04-29 02:31 | 31.71591 | 35.99091 | 2417 ft | 115 kts | 81° |
| 2026-04-29 02:32 | 31.71755 | 36.00200 | 2421 ft | 158 kts | 81° |
| 2026-04-29 02:32 | 31.71946 | 36.01544 | 2692 ft | 174 kts | 78° |
| 2026-04-29 02:32 | 31.72180 | 36.03018 | 3020 ft | 192 kts | 78° |
| 2026-04-29 02:32 | 31.72441 | 36.04609 | 3462 ft | 203 kts | 78° |
| 2026-04-29 02:33 | 31.72684 | 36.06275 | 3901 ft | 213 kts | 79° |
| 2026-04-29 02:33 | 31.72930 | 36.08024 | 4413 ft | 220 kts | 76° |
| 2026-04-29 02:33 | 31.73491 | 36.09702 | 4929 ft | 226 kts | 52° |
| 2026-04-29 02:33 | 31.74628 | 36.11025 | 5404 ft | 237 kts | 30° |
| 2026-04-29 02:34 | 31.76160 | 36.11836 | 5923 ft | 249 kts | 12° |
| 2026-04-29 02:34 | 31.77906 | 36.12320 | 6451 ft | 266 kts | 12° |
| 2026-04-29 02:34 | 31.79743 | 36.12792 | 7115 ft | 273 kts | 5° |
| 2026-04-29 02:34 | 31.81623 | 36.12942 | 7869 ft | 277 kts | 6° |
| 2026-04-29 02:35 | 31.83418 | 36.13782 | 8660 ft | 284 kts | 37° |
| 2026-04-29 02:35 | 31.84878 | 36.15385 | 9383 ft | 292 kts | 42° |
| 2026-04-29 02:35 | 31.86372 | 36.17041 | 10099 ft | 297 kts | 41° |
| 2026-04-29 02:35 | 31.87929 | 36.18714 | 10555 ft | 311 kts | 40° |
| 2026-04-29 02:36 | 31.89592 | 36.20464 | 10921 ft | 328 kts | 40° |
| 2026-04-29 02:36 | 31.91341 | 36.22291 | 11267 ft | 344 kts | 40° |
| 2026-04-29 02:36 | 31.93155 | 36.24184 | 11826 ft | 351 kts | 40° |
| 2026-04-29 02:36 | 31.94993 | 36.26105 | 12512 ft | 355 kts | 40° |
| 2026-04-29 02:37 | 31.96846 | 36.28048 | 12889 ft | 358 kts | 40° |
| 2026-04-29 02:37 | 31.98707 | 36.30005 | 12983 ft | 359 kts | 40° |
| 2026-04-29 02:37 | 32.00571 | 36.31964 | 12989 ft | 359 kts | 40° |
| 2026-04-29 02:37 | 32.02438 | 36.33925 | 12994 ft | 359 kts | 40° |
| 2026-04-29 02:38 | 32.04300 | 36.35882 | 12988 ft | 359 kts | 40° |
| 2026-04-29 02:38 | 32.06163 | 36.37842 | 12988 ft | 359 kts | 40° |
| 2026-04-29 02:38 | 32.08004 | 36.39781 | 12985 ft | 359 kts | 40° |
| 2026-04-29 02:38 | 32.09867 | 36.41744 | 12992 ft | 359 kts | 40° |
| 2026-04-29 02:39 | 32.11731 | 36.43710 | 12985 ft | 359 kts | 40° |
| 2026-04-29 02:39 | 32.13536 | 36.45750 | 13107 ft | 360 kts | 47° |
| 2026-04-29 02:39 | 32.14994 | 36.48182 | 13704 ft | 367 kts | 59° |
| 2026-04-29 02:39 | 32.16021 | 36.50956 | 14299 ft | 373 kts | 72° |
| 2026-04-29 02:40 | 32.16557 | 36.53967 | 14879 ft | 377 kts | 81° |
| 2026-04-29 02:40 | 32.16930 | 36.57048 | 15438 ft | 381 kts | 81° |
| 2026-04-29 02:40 | 32.17308 | 36.60164 | 16009 ft | 385 kts | 81° |
| 2026-04-29 02:40 | 32.17688 | 36.63310 | 16580 ft | 389 kts | 81° |
| 2026-04-29 02:41 | 32.18071 | 36.66486 | 17156 ft | 393 kts | 81° |
| 2026-04-29 02:41 | 32.18455 | 36.69685 | 17733 ft | 396 kts | 81° |
| 2026-04-29 02:41 | 32.18841 | 36.72924 | 18311 ft | 400 kts | 82° |
| 2026-04-29 02:41 | 32.19229 | 36.76195 | 18831 ft | 404 kts | 82° |
| 2026-04-29 02:42 | 32.19619 | 36.79492 | 19366 ft | 407 kts | 82° |
| 2026-04-29 02:42 | 32.20159 | 36.82784 | 19907 ft | 410 kts | 73° |
| 2026-04-29 02:42 | 32.21170 | 36.85930 | 20471 ft | 412 kts | 62° |
| 2026-04-29 02:42 | 32.22636 | 36.88835 | 20988 ft | 413 kts | 52° |
| 2026-04-29 02:43 | 32.24404 | 36.91525 | 21483 ft | 416 kts | 50° |
| 2026-04-29 02:43 | 32.26195 | 36.94230 | 21982 ft | 419 kts | 50° |
| 2026-04-29 02:43 | 32.27995 | 36.96962 | 22486 ft | 423 kts | 50° |
| 2026-04-29 02:43 | 32.29782 | 36.99689 | 22978 ft | 426 kts | 50° |
| 2026-04-29 02:44 | 32.31601 | 37.02472 | 23465 ft | 430 kts | 50° |
| 2026-04-29 02:44 | 32.33434 | 37.05276 | 23882 ft | 433 kts | 50° |
| 2026-04-29 02:44 | 32.35285 | 37.08099 | 24295 ft | 435 kts | 50° |
| 2026-04-29 02:44 | 32.37152 | 37.10940 | 24708 ft | 437 kts | 50° |
| 2026-04-29 02:45 | 32.39021 | 37.13785 | 25116 ft | 440 kts | 50° |
| 2026-04-29 02:45 | 32.40897 | 37.16650 | 25513 ft | 442 kts | 50° |
| 2026-04-29 02:45 | 32.42790 | 37.19546 | 25903 ft | 444 kts | 50° |
| 2026-04-29 02:45 | 32.44683 | 37.22448 | 26286 ft | 446 kts | 50° |
| 2026-04-29 02:46 | 32.46584 | 37.25367 | 26661 ft | 449 kts | 50° |
| 2026-04-29 02:46 | 32.48494 | 37.28298 | 27027 ft | 451 kts | 50° |
| 2026-04-29 02:46 | 32.50418 | 37.31247 | 27388 ft | 453 kts | 50° |
| 2026-04-29 02:46 | 32.52352 | 37.34209 | 27759 ft | 456 kts | 50° |
| 2026-04-29 02:47 | 32.54300 | 37.37190 | 28115 ft | 458 kts | 50° |
| 2026-04-29 02:47 | 32.56249 | 37.40180 | 28487 ft | 460 kts | 50° |
| 2026-04-29 02:47 | 32.58208 | 37.43193 | 28850 ft | 462 kts | 51° |
| 2026-04-29 02:47 | 32.60172 | 37.46221 | 29202 ft | 464 kts | 51° |
| 2026-04-29 02:48 | 32.62145 | 37.49266 | 29545 ft | 467 kts | 51° |
| 2026-04-29 02:48 | 32.64129 | 37.52330 | 29884 ft | 469 kts | 51° |
| 2026-04-29 02:48 | 32.66122 | 37.55408 | 30198 ft | 471 kts | 51° |
| 2026-04-29 02:48 | 32.68121 | 37.58499 | 30508 ft | 473 kts | 51° |
| 2026-04-29 02:49 | 32.70103 | 37.61562 | 30855 ft | 473 kts | 51° |
| 2026-04-29 02:49 | 32.72114 | 37.64667 | 31197 ft | 474 kts | 51° |
| 2026-04-29 02:49 | 32.73978 | 37.67896 | 31527 ft | 477 kts | 59° |
| 2026-04-29 02:49 | 32.75440 | 37.71438 | 31867 ft | 479 kts | 68° |
| 2026-04-29 02:50 | 32.76556 | 37.75175 | 32182 ft | 480 kts | 71° |
| 2026-04-29 02:50 | 32.77294 | 37.77709 | 32386 ft | 482 kts | 71° |
| 2026-04-29 02:50 | 32.78395 | 37.81482 | 32701 ft | 483 kts | 71° |
| 2026-04-29 02:50 | 32.79501 | 37.85259 | 33029 ft | 485 kts | 71° |
| 2026-04-29 02:51 | 32.80593 | 37.89001 | 33366 ft | 486 kts | 71° |
| 2026-04-29 02:51 | 32.81686 | 37.92815 | 33700 ft | 487 kts | 71° |
| 2026-04-29 02:51 | 32.82766 | 37.96632 | 34031 ft | 488 kts | 72° |
| 2026-04-29 02:51 | 32.83840 | 38.00469 | 34301 ft | 489 kts | 72° |
| 2026-04-29 02:52 | 32.84912 | 38.04315 | 34556 ft | 490 kts | 72° |
| 2026-04-29 02:52 | 32.85991 | 38.08159 | 34798 ft | 492 kts | 72° |
| 2026-04-29 02:52 | 32.87089 | 38.12026 | 35038 ft | 493 kts | 72° |
| 2026-04-29 02:52 | 32.88196 | 38.15890 | 35263 ft | 495 kts | 71° |
| 2026-04-29 02:53 | 32.89311 | 38.19772 | 35498 ft | 496 kts | 72° |
| 2026-04-29 02:53 | 32.90424 | 38.23660 | 35749 ft | 497 kts | 72° |
| 2026-04-29 02:53 | 32.91540 | 38.27564 | 35971 ft | 498 kts | 72° |
| 2026-04-29 02:53 | 32.92649 | 38.31468 | 36204 ft | 499 kts | 72° |
| 2026-04-29 02:54 | 32.93756 | 38.35385 | 36446 ft | 499 kts | 72° |
| 2026-04-29 02:54 | 32.94863 | 38.39316 | 36674 ft | 500 kts | 72° |
| 2026-04-29 02:54 | 32.95954 | 38.43195 | 36887 ft | 501 kts | 72° |
| 2026-04-29 02:55 | 32.98188 | 38.51119 | 37000 ft | 509 kts | 72° |
| 2026-04-29 02:55 | 33.00450 | 38.59140 | 37000 ft | 511 kts | 72° |
| 2026-04-29 02:56 | 33.02697 | 38.67152 | 37001 ft | 511 kts | 72° |
| 2026-04-29 02:56 | 33.04950 | 38.75206 | 37002 ft | 511 kts | 72° |
| 2026-04-29 02:57 | 33.07193 | 38.83237 | 37002 ft | 511 kts | 72° |
| 2026-04-29 02:57 | 33.09348 | 38.91315 | 37002 ft | 510 kts | 79° |
| 2026-04-29 02:58 | 33.10022 | 38.99675 | 36990 ft | 505 kts | 94° |
| 2026-04-29 02:58 | 33.10011 | 39.08000 | 36985 ft | 505 kts | 93° |
| 2026-04-29 02:59 | 33.10018 | 39.16389 | 36988 ft | 506 kts | 93° |
| 2026-04-29 02:59 | 33.10020 | 39.24776 | 36993 ft | 506 kts | 93° |
| 2026-04-29 03:00 | 33.10015 | 39.33178 | 36994 ft | 507 kts | 94° |
| 2026-04-29 03:00 | 33.10003 | 39.41560 | 37261 ft | 489 kts | 90° |
| 2026-04-29 03:00 | 33.09997 | 39.45482 | 38336 ft | 459 kts | 90° |
| 2026-04-29 03:01 | 33.09989 | 39.49198 | 39374 ft | 438 kts | 90° |
| 2026-04-29 03:01 | 33.09961 | 39.56565 | 39196 ft | 451 kts | 90° |
| 2026-04-29 03:01 | 33.09942 | 39.60311 | 38999 ft | 452 kts | 90° |
| 2026-04-29 03:02 | 33.09921 | 39.64055 | 38800 ft | 452 kts | 90° |
| 2026-04-29 03:02 | 33.09903 | 39.67802 | 38600 ft | 452 kts | 90° |
| 2026-04-29 03:02 | 33.09886 | 39.71547 | 38405 ft | 452 kts | 90° |
| 2026-04-29 03:02 | 33.09871 | 39.75289 | 38175 ft | 451 kts | 90° |
| 2026-04-29 03:03 | 33.09855 | 39.79035 | 37961 ft | 451 kts | 90° |
| 2026-04-29 03:03 | 33.09839 | 39.82777 | 37778 ft | 451 kts | 90° |
| 2026-04-29 03:03 | 33.09821 | 39.86472 | 37581 ft | 452 kts | 90° |
| 2026-04-29 03:03 | 33.09799 | 39.90222 | 37382 ft | 452 kts | 90° |
| 2026-04-29 03:04 | 33.09775 | 39.93972 | 37180 ft | 452 kts | 90° |
| 2026-04-29 03:04 | 33.09751 | 39.97713 | 36986 ft | 451 kts | 90° |
| 2026-04-29 03:04 | 33.09726 | 40.01455 | 37009 ft | 452 kts | 91° |
| 2026-04-29 03:05 | 33.09669 | 40.08959 | 37009 ft | 453 kts | 91° |
| 2026-04-29 03:05 | 33.09603 | 40.16463 | 37009 ft | 453 kts | 91° |
| 2026-04-29 03:06 | 33.09533 | 40.23966 | 37009 ft | 453 kts | 91° |
| 2026-04-29 03:06 | 33.09461 | 40.31489 | 37013 ft | 453 kts | 91° |
| 2026-04-29 03:07 | 33.09394 | 40.38995 | 37022 ft | 453 kts | 91° |
| 2026-04-29 03:07 | 33.09316 | 40.46508 | 37026 ft | 453 kts | 91° |
| 2026-04-29 03:08 | 33.09230 | 40.53974 | 37026 ft | 453 kts | 91° |
| 2026-04-29 03:08 | 33.09144 | 40.61528 | 37026 ft | 453 kts | 91° |
| 2026-04-29 03:09 | 33.09051 | 40.68991 | 37025 ft | 453 kts | 91° |
| 2026-04-29 03:09 | 33.08951 | 40.76501 | 37023 ft | 453 kts | 91° |
| 2026-04-29 03:10 | 33.08851 | 40.84001 | 37021 ft | 453 kts | 91° |
| 2026-04-29 03:10 | 33.08746 | 40.91507 | 37020 ft | 453 kts | 91° |
| 2026-04-29 03:11 | 33.08633 | 40.99012 | 37018 ft | 452 kts | 91° |
| 2026-04-29 03:11 | 33.08522 | 41.06514 | 37015 ft | 452 kts | 91° |
| 2026-04-29 03:12 | 33.08405 | 41.14008 | 37014 ft | 452 kts | 91° |
| 2026-04-29 03:12 | 33.08252 | 41.21519 | 37014 ft | 452 kts | 92° |
| 2026-04-29 03:13 | 33.07968 | 41.28971 | 37015 ft | 452 kts | 93° |
| 2026-04-29 03:13 | 33.07627 | 41.36473 | 37015 ft | 452 kts | 93° |
| 2026-04-29 03:14 | 33.07304 | 41.43957 | 37011 ft | 452 kts | 93° |
| 2026-04-29 03:14 | 33.06997 | 41.51449 | 37008 ft | 452 kts | 93° |
| 2026-04-29 03:15 | 33.06691 | 41.58943 | 37007 ft | 452 kts | 93° |
| 2026-04-29 03:15 | 33.06377 | 41.66429 | 37004 ft | 452 kts | 93° |
| 2026-04-29 03:16 | 33.06051 | 41.73913 | 37004 ft | 452 kts | 93° |
| 2026-04-29 03:16 | 33.05716 | 41.81401 | 37005 ft | 452 kts | 93° |
| 2026-04-29 03:17 | 33.05386 | 41.88890 | 37009 ft | 452 kts | 93° |
| 2026-04-29 03:17 | 33.05053 | 41.96341 | 37016 ft | 453 kts | 93° |
| 2026-04-29 03:18 | 33.04714 | 42.03838 | 37021 ft | 452 kts | 93° |
| 2026-04-29 03:18 | 33.04365 | 42.11324 | 37020 ft | 452 kts | 93° |
| 2026-04-29 03:19 | 33.04023 | 42.18811 | 37018 ft | 452 kts | 93° |
| 2026-04-29 03:19 | 33.03679 | 42.26228 | 37041 ft | 446 kts | 94° |
| 2026-04-29 03:20 | 33.03318 | 42.33615 | 37030 ft | 446 kts | 94° |
| 2026-04-29 03:20 | 33.03000 | 42.40992 | 36371 ft | 445 kts | 93° |
| 2026-04-29 03:20 | 33.02857 | 42.44720 | 34703 ft | 458 kts | 93° |
| 2026-04-29 03:21 | 33.02715 | 42.48553 | 33157 ft | 466 kts | 92° |
| 2026-04-29 03:21 | 33.02574 | 42.52399 | 32003 ft | 463 kts | 92° |
| 2026-04-29 03:21 | 33.02429 | 42.56200 | 30994 ft | 457 kts | 93° |
| 2026-04-29 03:21 | 33.02283 | 42.59920 | 30421 ft | 441 kts | 93° |
| 2026-04-29 03:22 | 33.02134 | 42.63508 | 29917 ft | 426 kts | 93° |
| 2026-04-29 03:22 | 33.01987 | 42.66969 | 29425 ft | 412 kts | 93° |
| 2026-04-29 03:22 | 33.01844 | 42.70324 | 28949 ft | 399 kts | 93° |
| 2026-04-29 03:22 | 33.01707 | 42.73581 | 28492 ft | 389 kts | 93° |
| 2026-04-29 03:23 | 33.01575 | 42.76755 | 28046 ft | 380 kts | 93° |
| 2026-04-29 03:23 | 33.01446 | 42.79872 | 27622 ft | 383 kts | 93° |
| 2026-04-29 03:23 | 33.01312 | 42.83035 | 27186 ft | 382 kts | 93° |
| 2026-04-29 03:23 | 33.01171 | 42.86201 | 26765 ft | 382 kts | 93° |
| 2026-04-29 03:24 | 33.01030 | 42.89359 | 26346 ft | 381 kts | 93° |
| 2026-04-29 03:24 | 33.00890 | 42.92504 | 25932 ft | 379 kts | 93° |
| 2026-04-29 03:24 | 33.00751 | 42.95634 | 25523 ft | 378 kts | 93° |
| 2026-04-29 03:24 | 33.00614 | 42.98753 | 25112 ft | 376 kts | 93° |
| 2026-04-29 03:25 | 33.00479 | 43.01857 | 24704 ft | 374 kts | 93° |
| 2026-04-29 03:25 | 33.00343 | 43.04951 | 24296 ft | 372 kts | 93° |
| 2026-04-29 03:25 | 33.00207 | 43.08021 | 23879 ft | 370 kts | 93° |
| 2026-04-29 03:25 | 33.00071 | 43.11071 | 23462 ft | 368 kts | 93° |
| 2026-04-29 03:26 | 32.99935 | 43.14112 | 23038 ft | 366 kts | 93° |
| 2026-04-29 03:26 | 32.99796 | 43.17136 | 22603 ft | 365 kts | 93° |
| 2026-04-29 03:26 | 32.99658 | 43.20148 | 22171 ft | 363 kts | 93° |
| 2026-04-29 03:26 | 32.99521 | 43.23147 | 21731 ft | 362 kts | 93° |
| 2026-04-29 03:27 | 32.99384 | 43.26134 | 21288 ft | 361 kts | 93° |
| 2026-04-29 03:27 | 32.99244 | 43.29108 | 20842 ft | 359 kts | 94° |
| 2026-04-29 03:27 | 32.99105 | 43.32038 | 20397 ft | 358 kts | 94° |
| 2026-04-29 03:27 | 32.98963 | 43.34995 | 19948 ft | 357 kts | 94° |
| 2026-04-29 03:28 | 32.98824 | 43.37945 | 19493 ft | 356 kts | 94° |
| 2026-04-29 03:28 | 32.98687 | 43.40888 | 19042 ft | 355 kts | 94° |
| 2026-04-29 03:28 | 32.98548 | 43.43812 | 18592 ft | 353 kts | 94° |
| 2026-04-29 03:28 | 32.98409 | 43.46726 | 18147 ft | 352 kts | 93° |
| 2026-04-29 03:29 | 32.98469 | 43.49632 | 17690 ft | 351 kts | 83° |
| 2026-04-29 03:29 | 32.98789 | 43.52503 | 17228 ft | 349 kts | 83° |
| 2026-04-29 03:29 | 32.99100 | 43.55371 | 16775 ft | 348 kts | 83° |
| 2026-04-29 03:29 | 32.99401 | 43.58225 | 16318 ft | 347 kts | 83° |
| 2026-04-29 03:30 | 32.99696 | 43.61076 | 15861 ft | 346 kts | 83° |
| 2026-04-29 03:30 | 32.99989 | 43.63910 | 15410 ft | 344 kts | 83° |
| 2026-04-29 03:30 | 33.00283 | 43.66734 | 14958 ft | 343 kts | 83° |
| 2026-04-29 03:30 | 33.00578 | 43.69545 | 14506 ft | 341 kts | 83° |
| 2026-04-29 03:31 | 33.01161 | 43.75129 | 13612 ft | 338 kts | 83° |
| 2026-04-29 03:31 | 33.01447 | 43.77873 | 13171 ft | 336 kts | 83° |
| 2026-04-29 03:31 | 33.01733 | 43.80626 | 12728 ft | 334 kts | 83° |
| 2026-04-29 03:32 | 33.02016 | 43.83365 | 12292 ft | 332 kts | 83° |
| 2026-04-29 03:32 | 33.02296 | 43.86091 | 11881 ft | 330 kts | 83° |
| 2026-04-29 03:32 | 33.02575 | 43.88791 | 11504 ft | 327 kts | 83° |
| 2026-04-29 03:32 | 33.02843 | 43.91362 | 11096 ft | 325 kts | 83° |
| 2026-04-29 03:33 | 33.03121 | 43.94033 | 10656 ft | 324 kts | 83° |
| 2026-04-29 03:33 | 33.03394 | 43.96689 | 10247 ft | 322 kts | 83° |
| 2026-04-29 03:33 | 33.03662 | 43.99299 | 10089 ft | 312 kts | 83° |
| 2026-04-29 03:33 | 33.03921 | 44.01820 | 9962 ft | 302 kts | 83° |
| 2026-04-29 03:34 | 33.04171 | 44.04273 | 9686 ft | 294 kts | 83° |
| 2026-04-29 03:34 | 33.04415 | 44.06678 | 9073 ft | 291 kts | 83° |
| 2026-04-29 03:34 | 33.04656 | 44.09057 | 8636 ft | 287 kts | 83° |
| 2026-04-29 03:34 | 33.04895 | 44.11417 | 8239 ft | 286 kts | 83° |
| 2026-04-29 03:35 | 33.05128 | 44.13737 | 7851 ft | 284 kts | 83° |
| 2026-04-29 03:35 | 33.05362 | 44.16070 | 7466 ft | 284 kts | 83° |
| 2026-04-29 03:35 | 33.05597 | 44.18416 | 7074 ft | 285 kts | 83° |
| 2026-04-29 03:35 | 33.05836 | 44.20764 | 6698 ft | 286 kts | 83° |
| 2026-04-29 03:36 | 33.06075 | 44.23106 | 6345 ft | 285 kts | 83° |
| 2026-04-29 03:36 | 33.06312 | 44.25446 | 5949 ft | 284 kts | 83° |
| 2026-04-29 03:36 | 33.06542 | 44.27754 | 5519 ft | 276 kts | 83° |
| 2026-04-29 03:36 | 33.06765 | 44.29979 | 5144 ft | 266 kts | 83° |
| 2026-04-29 03:37 | 33.06987 | 44.32125 | 4786 ft | 256 kts | 80° |
| 2026-04-29 03:37 | 33.07660 | 44.34010 | 4446 ft | 244 kts | 48° |
| 2026-04-29 03:37 | 33.09018 | 44.35099 | 4150 ft | 233 kts | 14° |
| 2026-04-29 03:37 | 33.10571 | 44.35153 | 4086 ft | 218 kts | 343° |
| 2026-04-29 03:38 | 33.11473 | 44.34701 | 4084 ft | 206 kts | 328° |
| 2026-04-29 03:38 | 33.12703 | 44.33854 | 4090 ft | 204 kts | 329° |
| 2026-04-29 03:38 | 33.13936 | 44.33011 | 3981 ft | 202 kts | 329° |
| 2026-04-29 03:38 | 33.15127 | 44.32197 | 3687 ft | 194 kts | 329° |
| 2026-04-29 03:39 | 33.16288 | 44.31403 | 3329 ft | 191 kts | 329° |
| 2026-04-29 03:39 | 33.17435 | 44.30619 | 2977 ft | 188 kts | 329° |
| 2026-04-29 03:39 | 33.18557 | 44.29851 | 2625 ft | 182 kts | 329° |
| 2026-04-29 03:39 | 33.19631 | 44.29118 | 2262 ft | 172 kts | 329° |
| 2026-04-29 03:40 | 33.20636 | 44.28423 | 1847 ft | 160 kts | 328° |
| 2026-04-29 03:40 | 33.21574 | 44.27788 | 1526 ft | 149 kts | 330° |
| 2026-04-29 03:40 | 33.22324 | 44.27304 | 1276 ft | 143 kts | 329° |
| 2026-04-29 03:40 | 33.23181 | 44.26709 | 934 ft | 144 kts | 328° |
| 2026-04-29 03:41 | 33.24036 | 44.26091 | 568 ft | 143 kts | 329° |
| 2026-04-29 03:41 | 33.24891 | 44.25508 | 275 ft | 140 kts | 329° |
| 2026-04-29 03:41 | 33.25739 | 44.24934 | 154 ft | 138 kts | 329° |
| 2026-04-29 03:41 | 33.26448 | 44.24442 | 139 ft | 84 kts | 329° |
| 2026-04-29 03:42 | 33.26768 | 44.24149 | 141 ft | 34 kts | 304° |
| 2026-04-29 03:42 | 33.26818 | 44.24051 | 141 ft | 0 kts | 300° |
| 2026-04-29 03:43 | 33.26819 | 44.24048 | 141 ft | 2 kts | 300° |
| 2026-04-29 03:43 | 33.26838 | 44.24009 | 140 ft | 8 kts | 300° |
| 2026-04-29 03:43 | 33.26871 | 44.23942 | 140 ft | 11 kts | 301° |
| 2026-04-29 03:44 | 33.26922 | 44.23865 | 140 ft | 13 kts | 319° |
| 2026-04-29 03:44 | 33.27005 | 44.23804 | 140 ft | 15 kts | 330° |
| 2026-04-29 03:44 | 33.27105 | 44.23734 | 140 ft | 18 kts | 330° |
| 2026-04-29 03:44 | 33.27222 | 44.23653 | 140 ft | 21 kts | 330° |
| 2026-04-29 03:45 | 33.27349 | 44.23564 | 139 ft | 22 kts | 324° |
| 2026-04-29 03:45 | 33.27338 | 44.23433 | 140 ft | 18 kts | 240° |
| 2026-04-29 03:45 | 33.27273 | 44.23297 | 140 ft | 20 kts | 239° |
| 2026-04-29 03:45 | 33.27200 | 44.23146 | 140 ft | 22 kts | 239° |
| 2026-04-29 03:46 | 33.27124 | 44.22991 | 140 ft | 21 kts | 240° |
| 2026-04-29 03:46 | 33.27061 | 44.22935 | 140 ft | 10 kts | 122° |
| 2026-04-29 03:46 | 33.27020 | 44.22988 | 140 ft | 9 kts | 139° |
| 2026-04-29 03:46 | 33.26994 | 44.23017 | 140 ft | 4 kts | 137° |
| 2026-04-29 03:47 | 33.26992 | 44.23018 | 140 ft | 0 kts | 137° |